createdAt,value
2018-05-19T00:02:11.713Z,10.03
2018-05-19T00:04:39.057Z,9.90
2018-05-19T00:07:06.420Z,10.63
2018-05-19T00:09:33.765Z,9.93
2018-05-19T00:12:01.152Z,10.57
2018-05-19T00:14:28.485Z,9.93
2018-05-19T00:16:55.847Z,9.40
2018-05-19T00:19:23.617Z,9.43
2018-05-19T00:21:51.303Z,10.50
2018-05-19T00:24:18.809Z,10.00
2018-05-19T00:26:46.200Z,10.07
2018-05-19T00:29:13.555Z,11.13
2018-05-19T00:31:40.924Z,8.70
2018-05-19T00:34:08.284Z,10.50
2018-05-19T00:36:35.672Z,10.47
2018-05-19T00:39:03.017Z,10.10
2018-05-19T00:43:55.335Z,9.20
2018-05-19T00:46:23.312Z,10.20
2018-05-19T00:48:50.712Z,10.77
2018-05-19T00:51:18.189Z,9.80
2018-05-19T00:53:45.533Z,10.80
2018-05-19T00:56:12.910Z,10.03
2018-05-19T00:58:40.261Z,9.50
2018-05-19T01:01:07.648Z,10.50
2018-05-19T01:03:34.986Z,9.87
2018-05-19T01:06:02.349Z,10.50
2018-05-19T01:08:29.715Z,10.70
2018-05-19T01:10:57.087Z,10.00
2018-05-19T01:13:24.866Z,10.50
2018-05-19T01:15:52.291Z,10.23
2018-05-19T01:18:19.888Z,9.50
2018-05-19T01:20:47.237Z,11.17
2018-05-19T01:23:14.617Z,10.23
2018-05-19T01:25:41.969Z,10.40
2018-05-19T01:28:09.340Z,10.00
2018-05-19T01:30:36.673Z,9.90
2018-05-19T01:33:04.050Z,10.03
2018-05-19T01:35:31.390Z,9.90
2018-05-19T01:37:58.778Z,10.03
2018-05-19T01:40:26.387Z,9.63
2018-05-19T01:42:54.222Z,9.60
2018-05-19T01:45:21.644Z,9.30
2018-05-19T01:47:49.009Z,10.57
2018-05-19T01:50:16.372Z,9.27
2018-05-19T01:52:43.749Z,9.40
2018-05-19T01:55:11.084Z,9.90
2018-05-19T01:57:38.464Z,9.57
2018-05-19T02:00:05.820Z,10.50
2018-05-19T02:02:33.203Z,10.03
2018-05-19T02:05:00.542Z,9.63
2018-05-19T02:07:27.913Z,10.00
2018-05-19T02:09:55.263Z,10.00
2018-05-19T02:12:22.643Z,10.30
2018-05-19T02:14:49.992Z,9.73
2018-05-19T02:17:17.352Z,9.87
2018-05-19T02:19:44.709Z,10.07
2018-05-19T02:22:12.073Z,9.83
2018-05-19T02:24:39.419Z,10.53
2018-05-19T02:27:06.788Z,9.33
2018-05-19T02:29:34.613Z,11.53
2018-05-19T02:32:02.351Z,10.23
2018-05-19T02:34:29.833Z,10.80
2018-05-19T02:36:57.213Z,9.93
2018-05-19T02:39:24.586Z,11.13
2018-05-19T02:41:51.985Z,10.37
2018-05-19T02:44:19.342Z,10.83
2018-05-19T02:46:46.711Z,12.60
2018-05-19T02:49:14.082Z,10.00
2018-05-19T02:51:41.424Z,11.23
2018-05-19T02:54:08.789Z,10.97
2018-05-19T02:56:36.181Z,11.33
2018-05-19T02:59:04.071Z,9.50
2018-05-19T03:01:31.633Z,11.77
2018-05-19T03:03:59.155Z,10.13
2018-05-19T03:06:26.502Z,11.83
2018-05-19T03:08:53.881Z,10.37
2018-05-19T03:11:21.233Z,11.60
2018-05-19T03:13:48.610Z,12.40
2018-05-19T03:16:15.973Z,10.30
2018-05-19T03:18:43.368Z,11.97
2018-05-19T03:21:10.713Z,11.00
2018-05-19T03:23:38.079Z,11.50
2018-05-19T03:26:05.630Z,10.57
2018-05-19T03:28:33.458Z,12.40
2018-05-19T03:31:00.908Z,10.80
2018-05-19T03:33:28.300Z,10.27
2018-05-19T03:35:55.685Z,11.70
2018-05-19T03:38:23.061Z,11.97
2018-05-19T03:40:50.425Z,11.13
2018-05-19T03:43:17.798Z,11.50
2018-05-19T03:45:45.146Z,10.17
2018-05-19T03:48:12.518Z,10.70
2018-05-19T03:50:39.866Z,11.80
2018-05-19T03:53:07.280Z,10.30
2018-05-19T03:55:35.082Z,11.43
2018-05-19T03:58:08.403Z,10.83
2018-05-19T04:00:41.556Z,10.90
2018-05-19T04:03:08.936Z,10.53
2018-05-19T04:05:36.507Z,11.37
2018-05-19T04:08:04.350Z,11.40
2018-05-19T04:10:31.839Z,12.67
2018-05-19T04:12:59.210Z,11.60
2018-05-19T04:15:26.595Z,11.20
2018-05-19T04:17:53.946Z,11.73
2018-05-19T04:20:21.321Z,11.27
2018-05-19T04:22:48.663Z,12.40
2018-05-19T04:25:16.047Z,11.63
2018-05-19T04:27:43.384Z,10.97
2018-05-19T04:30:10.757Z,10.03
2018-05-19T04:32:38.101Z,9.77
2018-05-19T04:35:06.005Z,11.00
2018-05-19T04:37:33.430Z,11.27
2018-05-19T04:40:00.956Z,11.20
2018-05-19T04:42:28.302Z,12.20
2018-05-19T04:44:55.672Z,12.37
2018-05-19T04:47:23.016Z,10.77
2018-05-19T04:49:50.381Z,11.40
2018-05-19T04:52:17.717Z,11.00
2018-05-19T04:54:45.096Z,11.30
2018-05-19T04:57:12.442Z,11.87
2018-05-19T04:59:39.814Z,11.03
2018-05-19T05:02:07.317Z,10.80
2018-05-19T05:04:35.152Z,12.20
2018-05-19T05:07:02.650Z,11.73
2018-05-19T05:09:30.029Z,11.20
2018-05-19T05:11:57.371Z,10.97
2018-05-19T05:14:24.746Z,11.33
2018-05-19T05:16:52.092Z,11.87
2018-05-19T05:19:19.461Z,10.77
2018-05-19T05:21:46.805Z,11.37
2018-05-19T05:24:14.175Z,11.30
2018-05-19T05:26:41.511Z,11.60
2018-05-19T05:29:08.888Z,12.50
2018-05-19T05:31:36.775Z,12.20
2018-05-19T05:34:04.344Z,12.23
2018-05-19T05:36:31.823Z,12.47
2018-05-19T05:38:59.206Z,12.27
2018-05-19T05:41:26.546Z,11.30
2018-05-19T05:43:53.887Z,11.47
2018-05-19T05:46:21.262Z,11.93
2018-05-19T05:48:48.618Z,11.90
2018-05-19T05:51:15.990Z,13.10
2018-05-19T05:53:43.339Z,12.47
2018-05-19T05:56:10.708Z,11.93
2018-05-19T05:58:38.326Z,11.77
2018-05-19T06:01:06.063Z,12.10
2018-05-19T06:03:33.554Z,12.90
2018-05-19T06:06:00.939Z,12.17
2018-05-19T06:08:28.280Z,11.63
2018-05-19T06:10:55.678Z,11.23
2018-05-19T06:13:23.114Z,19.33
2018-05-19T06:15:50.532Z,16.67
2018-05-19T06:18:17.884Z,30.70
2018-05-19T06:20:45.257Z,13.80
2018-05-19T06:23:12.601Z,13.13
2018-05-19T06:25:40.009Z,11.60
2018-05-19T06:28:07.888Z,12.53
2018-05-19T06:30:35.451Z,11.40
2018-05-19T06:33:02.960Z,13.07
2018-05-19T06:35:30.343Z,12.97
2018-05-19T06:37:57.690Z,13.13
2018-05-19T06:40:25.060Z,13.00
2018-05-19T06:42:52.404Z,13.03
2018-05-19T06:45:19.776Z,13.37
2018-05-19T06:47:47.218Z,12.50
2018-05-19T06:50:14.590Z,13.30
2018-05-19T06:52:41.951Z,12.63
2018-05-19T06:55:09.541Z,13.20
2018-05-19T06:57:37.380Z,14.07
2018-05-19T07:00:04.864Z,12.47
2018-05-19T07:02:32.287Z,13.10
2018-05-19T07:04:59.656Z,12.53
2018-05-19T07:07:27.002Z,12.00
2018-05-19T07:09:54.361Z,13.10
2018-05-19T07:12:21.729Z,12.77
2018-05-19T07:14:49.077Z,11.50
2018-05-19T07:17:16.479Z,11.57
2018-05-19T07:19:43.824Z,12.00
2018-05-19T07:22:11.233Z,13.23
2018-05-19T07:24:39.104Z,12.37
2018-05-19T07:27:06.667Z,10.57
2018-05-19T07:29:34.171Z,11.83
2018-05-19T07:32:01.542Z,13.63
2018-05-19T07:34:28.892Z,14.00
2018-05-19T07:36:56.272Z,13.60
2018-05-19T07:39:23.613Z,11.60
2018-05-19T07:41:50.991Z,12.40
2018-05-19T07:44:18.340Z,13.47
2018-05-19T07:46:45.725Z,12.20
2018-05-19T07:49:13.071Z,15.67
2018-05-19T07:51:40.755Z,13.23
2018-05-19T07:54:08.595Z,11.80
2018-05-19T07:56:36.115Z,10.87
2018-05-19T07:59:03.458Z,15.13
2018-05-19T08:01:30.855Z,11.43
2018-05-19T08:03:58.201Z,12.53
2018-05-19T08:06:25.584Z,13.30
2018-05-19T08:08:53.156Z,14.00
2018-05-19T08:11:21.230Z,15.40
2018-05-19T08:13:48.833Z,13.87
2018-05-19T08:16:16.223Z,14.87
2018-05-19T08:18:43.573Z,11.93
2018-05-19T08:21:11.174Z,11.83
2018-05-19T08:23:39.005Z,11.10
2018-05-19T08:26:06.506Z,12.43
2018-05-19T08:28:33.897Z,14.10
2018-05-19T08:31:01.258Z,12.77
2018-05-19T08:33:28.597Z,11.33
2018-05-19T08:35:55.968Z,10.83
2018-05-19T08:38:23.302Z,8.40
2018-05-19T08:40:50.683Z,11.23
2018-05-19T08:43:18.021Z,15.13
2018-05-19T08:45:45.362Z,11.80
2018-05-19T08:48:12.769Z,13.40
2018-05-19T08:50:40.731Z,14.30
2018-05-19T08:53:08.289Z,13.43
2018-05-19T08:55:35.784Z,12.70
2018-05-19T08:58:03.159Z,11.30
2018-05-19T09:00:30.508Z,12.00
2018-05-19T09:02:57.873Z,13.03
2018-05-19T09:05:25.210Z,11.43
2018-05-19T09:07:52.583Z,11.30
2018-05-19T09:10:19.926Z,11.70
2018-05-19T09:12:47.340Z,8.40
2018-05-19T09:15:14.700Z,12.40
2018-05-19T09:17:42.073Z,12.00
2018-05-19T09:20:09.425Z,12.00
2018-05-19T09:22:36.803Z,11.87
2018-05-19T09:25:04.149Z,10.03
2018-05-19T09:27:31.514Z,11.70
2018-05-19T09:29:59.147Z,10.57
2018-05-19T09:32:26.888Z,11.73
2018-05-19T09:34:54.384Z,11.37
2018-05-19T09:37:21.741Z,12.17
2018-05-19T09:39:49.093Z,13.40
2018-05-19T09:42:16.479Z,10.90
2018-05-19T09:44:43.821Z,8.70
2018-05-19T09:47:11.177Z,8.70
2018-05-19T09:49:38.527Z,9.03
2018-05-19T09:52:05.894Z,7.83
2018-05-19T09:54:33.255Z,10.77
2018-05-19T09:57:00.725Z,10.10
2018-05-19T09:59:28.686Z,10.77
2018-05-19T10:01:58.146Z,13.40
2018-05-19T10:04:28.579Z,12.10
2018-05-19T10:06:56.450Z,10.17
2018-05-19T10:09:24.888Z,9.63
2018-05-19T10:11:52.226Z,9.73
2018-05-19T10:14:19.592Z,11.17
2018-05-19T10:16:46.996Z,12.67
2018-05-19T10:19:14.420Z,7.67
2018-05-19T10:21:41.947Z,9.77
2018-05-19T10:24:14.054Z,11.83
2018-05-19T10:26:41.876Z,12.00
2018-05-19T10:29:09.248Z,12.57
2018-05-19T10:31:36.593Z,12.57
2018-05-19T10:34:03.966Z,11.23
2018-05-19T10:36:31.378Z,9.67
2018-05-19T10:38:58.855Z,13.77
2018-05-19T10:41:26.208Z,12.60
2018-05-19T10:43:53.576Z,13.52
2018-05-19T10:46:20.925Z,10.60
2018-05-19T10:48:48.315Z,11.70
2018-05-19T10:51:15.675Z,12.43
2018-05-19T10:53:43.057Z,14.50
2018-05-19T10:56:10.404Z,12.37
2018-05-19T10:58:37.777Z,11.93
2018-05-19T11:01:05.122Z,14.77
2018-05-19T11:03:32.507Z,13.13
2018-05-19T11:05:59.874Z,13.07
2018-05-19T11:08:27.257Z,12.53
2018-05-19T11:10:54.684Z,11.43
2018-05-19T11:13:22.050Z,14.60
2018-05-19T11:15:49.393Z,15.73
2018-05-19T11:18:16.773Z,13.67
2018-05-19T11:20:44.119Z,16.47
2018-05-19T11:23:11.493Z,22.60
2018-05-19T11:25:38.861Z,13.10
2018-05-19T11:28:06.261Z,12.67
2018-05-19T11:30:33.610Z,13.57
2018-05-19T11:33:00.993Z,11.60
2018-05-19T11:35:28.382Z,13.90
2018-05-19T11:37:55.813Z,13.30
2018-05-19T11:40:23.180Z,14.33
2018-05-19T11:42:50.520Z,12.77
2018-05-19T11:45:17.950Z,11.63
2018-05-19T11:47:45.290Z,11.80
2018-05-19T11:50:12.658Z,10.50
2018-05-19T11:52:40.002Z,9.47
2018-05-19T11:55:07.373Z,8.37
2018-05-19T11:57:34.708Z,9.10
2018-05-19T12:00:02.159Z,9.43
2018-05-19T12:02:29.584Z,9.17
2018-05-19T12:04:56.946Z,9.00
2018-05-19T12:07:24.282Z,9.63
2018-05-19T12:09:51.637Z,8.27
2018-05-19T12:12:19.052Z,11.50
2018-05-19T12:14:46.374Z,10.30
2018-05-19T12:17:13.717Z,10.20
2018-05-19T12:19:41.087Z,8.87
2018-05-19T12:22:08.423Z,9.00
2018-05-19T12:24:35.792Z,8.53
2018-05-19T12:27:03.227Z,9.33
2018-05-19T12:29:30.688Z,9.17
2018-05-19T12:31:58.027Z,7.57
2018-05-19T12:34:25.394Z,6.50
2018-05-19T12:36:52.738Z,7.37
2018-05-19T12:39:20.114Z,7.10
2018-05-19T12:41:47.461Z,7.90
2018-05-19T12:44:14.820Z,8.57
2018-05-19T12:46:42.157Z,9.90
2018-05-19T12:49:09.521Z,7.13
2018-05-19T12:51:36.848Z,5.20
2018-05-19T12:54:04.257Z,5.37
2018-05-19T12:56:31.612Z,5.27
2018-05-19T12:58:58.949Z,5.23
2018-05-19T13:01:26.313Z,7.00
2018-05-19T13:03:53.652Z,8.40
2018-05-19T13:06:21.017Z,7.23
2018-05-19T13:08:48.352Z,5.97
2018-05-19T13:11:15.713Z,6.37
2018-05-19T13:13:43.054Z,5.50
2018-05-19T13:16:10.409Z,5.47
2018-05-19T13:18:37.745Z,5.37
2018-05-19T13:21:05.178Z,6.80
2018-05-19T13:23:32.534Z,6.53
2018-05-19T13:25:59.893Z,6.30
2018-05-19T13:28:27.234Z,7.27
2018-05-19T13:30:54.597Z,6.40
2018-05-19T13:33:21.933Z,6.57
2018-05-19T13:35:49.295Z,4.77
2018-05-19T13:38:16.632Z,5.97
2018-05-19T13:40:44.006Z,5.57
2018-05-19T13:43:11.339Z,5.30
2018-05-19T13:45:38.710Z,6.20
2018-05-19T13:48:06.045Z,6.20
2018-05-19T13:50:33.435Z,7.50
2018-05-19T13:53:00.776Z,7.87
2018-05-19T13:55:28.141Z,6.47
2018-05-19T13:57:55.567Z,5.30
2018-05-19T14:00:22.884Z,5.70
2018-05-19T14:02:50.220Z,6.60
2018-05-19T14:05:17.705Z,6.67
2018-05-19T14:07:45.003Z,6.07
2018-05-19T14:10:12.376Z,7.40
2018-05-19T14:12:39.706Z,7.83
2018-05-19T14:15:07.069Z,7.57
2018-05-19T14:17:34.420Z,9.20
2018-05-19T14:20:01.754Z,6.17
2018-05-19T14:22:29.116Z,6.40
2018-05-19T14:24:56.453Z,6.63
2018-05-19T14:27:23.814Z,5.90
2018-05-19T14:29:51.145Z,5.53
2018-05-19T14:32:18.504Z,7.60
2018-05-19T14:34:45.855Z,6.60
2018-05-19T14:37:13.214Z,7.40
2018-05-19T14:39:40.549Z,6.20
2018-05-19T14:42:07.922Z,5.00
2018-05-19T14:44:35.273Z,6.97
2018-05-19T14:47:02.643Z,5.97
2018-05-19T14:49:30.017Z,5.13
2018-05-19T14:51:57.378Z,7.10
2018-05-19T14:54:24.726Z,6.80
2018-05-19T14:56:52.091Z,5.80
2018-05-19T14:59:19.430Z,7.97
2018-05-19T15:01:46.791Z,5.00
2018-05-19T15:04:14.125Z,6.00
2018-05-19T15:06:41.494Z,5.07
2018-05-19T15:09:08.828Z,6.70
2018-05-19T15:11:36.212Z,5.70
2018-05-19T15:14:03.577Z,6.80
2018-05-19T15:16:30.967Z,6.10
2018-05-19T15:18:58.310Z,6.70
2018-05-19T15:21:25.684Z,5.60
2018-05-19T15:23:53.022Z,5.90
2018-05-19T15:26:20.419Z,6.60
2018-05-19T15:28:47.751Z,7.70
2018-05-19T15:31:15.130Z,7.50
2018-05-19T15:33:42.463Z,7.70
2018-05-19T15:36:09.825Z,7.87
2018-05-19T15:38:37.207Z,7.07
2018-05-19T15:41:04.623Z,7.30
2018-05-19T15:43:32.158Z,7.50
2018-05-19T15:45:59.494Z,8.50
2018-05-19T15:48:26.862Z,7.30
2018-05-19T15:50:54.204Z,7.80
2018-05-19T15:53:21.577Z,8.47
2018-05-19T15:55:48.909Z,7.37
2018-05-19T15:58:16.273Z,6.67
2018-05-19T16:00:43.609Z,8.10
2018-05-19T16:03:10.992Z,7.97
2018-05-19T16:05:38.358Z,6.47
2018-05-19T16:08:05.745Z,8.60
2018-05-19T16:10:33.122Z,8.23
2018-05-19T16:13:00.476Z,5.57
2018-05-19T16:15:27.813Z,6.20
2018-05-19T16:17:55.185Z,7.27
2018-05-19T16:20:22.520Z,6.90
2018-05-19T16:22:49.901Z,6.87
2018-05-19T16:25:17.238Z,7.00
2018-05-19T16:27:44.609Z,7.20
2018-05-19T16:30:11.946Z,7.60
2018-05-19T16:32:39.431Z,7.93
2018-05-19T16:35:06.738Z,7.30
2018-05-19T16:37:34.111Z,7.47
2018-05-19T16:40:01.469Z,7.87
2018-05-19T16:42:28.832Z,6.27
2018-05-19T16:44:56.170Z,8.30
2018-05-19T16:47:23.534Z,7.70
2018-05-19T16:49:50.877Z,7.13
2018-05-19T16:52:18.256Z,5.83
2018-05-19T16:54:45.624Z,8.67
2018-05-19T16:57:12.987Z,8.00
2018-05-19T16:59:40.323Z,8.40
2018-05-19T17:02:07.706Z,7.27
2018-05-19T17:04:35.058Z,6.87
2018-05-19T17:07:02.406Z,8.00
2018-05-19T17:09:29.775Z,6.77
2018-05-19T17:11:57.110Z,6.47
2018-05-19T17:14:24.470Z,7.17
2018-05-19T17:16:51.804Z,6.50
2018-05-19T17:19:19.165Z,5.60
2018-05-19T17:21:46.525Z,6.77
2018-05-19T17:24:13.891Z,6.63
2018-05-19T17:26:41.219Z,6.10
2018-05-19T17:29:08.607Z,6.00
2018-05-19T17:31:35.936Z,5.30
2018-05-19T17:34:03.310Z,6.07
2018-05-19T17:36:30.666Z,6.50
2018-05-19T17:38:58.036Z,6.20
2018-05-19T17:41:25.369Z,6.33
2018-05-19T17:43:52.725Z,5.30
2018-05-19T17:46:20.078Z,5.03
2018-05-19T17:48:47.444Z,5.77
2018-05-19T17:51:14.786Z,6.90
2018-05-19T17:53:42.152Z,5.53
2018-05-19T17:56:09.501Z,5.37
2018-05-19T17:58:36.911Z,12.30
2018-05-19T18:01:04.265Z,13.00
2018-05-19T18:03:31.639Z,7.80
2018-05-19T18:05:58.981Z,5.67
2018-05-19T18:08:26.342Z,6.43
2018-05-19T18:10:53.714Z,6.50
2018-05-19T18:13:21.092Z,7.30
2018-05-19T18:15:48.430Z,6.90
2018-05-19T18:18:15.801Z,6.60
2018-05-19T18:20:43.141Z,6.43
2018-05-19T18:23:10.540Z,6.93
2018-05-19T18:25:37.901Z,7.30
2018-05-19T18:28:05.238Z,7.10
2018-05-19T18:30:32.603Z,7.30
2018-05-19T18:32:59.944Z,7.47
2018-05-19T18:35:27.302Z,7.77
2018-05-19T18:37:54.649Z,7.10
2018-05-19T18:40:22.010Z,8.00
2018-05-19T18:42:49.353Z,6.83
2018-05-19T18:45:16.735Z,8.00
2018-05-19T18:47:44.068Z,6.87
2018-05-19T18:50:11.437Z,8.27
2018-05-19T18:52:44.760Z,6.90
2018-05-19T18:55:12.149Z,7.47
2018-05-19T18:57:39.577Z,8.07
2018-05-19T19:00:06.902Z,7.40
2018-05-19T19:02:34.232Z,7.13
2018-05-19T19:05:01.636Z,7.60
2018-05-19T19:07:28.969Z,7.10
2018-05-19T19:09:56.330Z,7.80
2018-05-19T19:12:23.665Z,7.80
2018-05-19T19:14:51.026Z,7.67
2018-05-19T19:17:18.366Z,8.07
2018-05-19T19:19:45.725Z,8.03
2018-05-19T19:22:13.065Z,8.60
2018-05-19T19:24:40.447Z,7.37
2018-05-19T19:27:07.793Z,12.70
2018-05-19T19:29:35.165Z,27.50
2018-05-19T19:32:02.519Z,9.53
2018-05-19T19:34:29.890Z,7.57
2018-05-19T19:36:57.221Z,7.53
2018-05-19T19:39:24.584Z,7.30
2018-05-19T19:41:51.912Z,7.30
2018-05-19T19:44:19.282Z,8.90
2018-05-19T19:46:46.629Z,7.37
2018-05-19T19:49:14.003Z,7.80
2018-05-19T19:51:41.345Z,7.90
2018-05-19T19:54:08.719Z,10.70
2018-05-19T19:56:36.094Z,8.20
2018-05-19T19:59:03.432Z,8.93
2018-05-19T20:01:30.791Z,7.83
2018-05-19T20:03:58.140Z,8.20
2018-05-19T20:06:25.530Z,8.00
2018-05-19T20:08:52.868Z,7.23
2018-05-19T20:11:20.232Z,10.27
2018-05-19T20:13:47.583Z,8.60
2018-05-19T20:16:14.956Z,9.00
2018-05-19T20:18:42.309Z,8.80
2018-05-19T20:21:09.749Z,9.63
2018-05-19T20:23:37.075Z,8.47
2018-05-19T20:26:04.444Z,8.40
2018-05-19T20:28:31.785Z,8.43
2018-05-19T20:30:59.149Z,8.80
2018-05-19T20:33:26.490Z,7.47
2018-05-19T20:35:53.853Z,7.50
2018-05-19T20:38:21.194Z,8.67
2018-05-19T20:40:48.561Z,8.83
2018-05-19T20:43:15.906Z,8.60
2018-05-19T20:45:43.333Z,8.73
2018-05-19T20:48:10.689Z,8.20
2018-05-19T20:50:38.058Z,8.40
2018-05-19T20:53:05.399Z,8.83
2018-05-19T20:55:32.768Z,8.47
2018-05-19T20:58:00.107Z,7.80
2018-05-19T21:00:27.654Z,8.27
2018-05-19T21:02:54.995Z,9.40
2018-05-19T21:05:22.364Z,9.30
2018-05-19T21:07:49.709Z,9.83
2018-05-19T21:10:17.078Z,8.80
2018-05-19T21:12:44.421Z,9.40
2018-05-19T21:15:11.774Z,8.87
2018-05-19T21:17:39.136Z,9.23
2018-05-19T21:20:06.469Z,9.20
2018-05-19T21:22:33.829Z,8.20
2018-05-19T21:25:01.169Z,9.27
2018-05-19T21:27:28.631Z,9.00
2018-05-19T21:29:55.925Z,10.60
2018-05-19T21:32:23.286Z,9.47
2018-05-19T21:34:50.621Z,8.77
2018-05-19T21:37:17.994Z,8.60
2018-05-19T21:39:45.327Z,8.70
2018-05-19T21:42:12.989Z,8.20
2018-05-19T21:44:40.455Z,8.00
2018-05-19T21:47:07.822Z,7.70
2018-05-19T21:49:35.147Z,8.40
2018-05-19T21:52:02.513Z,7.50
2018-05-19T21:54:29.846Z,7.77
2018-05-19T21:56:57.208Z,7.70
2018-05-19T21:59:24.546Z,11.20
2018-05-19T22:01:51.931Z,10.57
2018-05-19T22:04:19.280Z,10.67
2018-05-19T22:06:46.656Z,7.60
2018-05-19T22:09:14.029Z,7.40
2018-05-19T22:11:41.394Z,8.30
2018-05-19T22:14:08.765Z,9.07
2018-05-19T22:16:36.141Z,8.93
2018-05-19T22:19:03.479Z,8.23
2018-05-19T22:21:30.838Z,8.50
2018-05-19T22:23:58.192Z,9.67
2018-05-19T22:26:25.561Z,10.03
2018-05-19T22:28:52.904Z,11.17
2018-05-19T22:31:20.280Z,9.93
2018-05-19T22:33:47.610Z,7.90
2018-05-19T22:36:14.968Z,8.10
2018-05-19T22:38:42.354Z,8.30
2018-05-19T22:41:09.704Z,8.70
2018-05-19T22:43:37.118Z,9.20
2018-05-19T22:46:04.457Z,9.40
2018-05-19T22:48:31.814Z,9.20
2018-05-19T22:50:59.159Z,8.70
2018-05-19T22:53:26.534Z,8.83
2018-05-19T22:55:53.904Z,9.10
2018-05-19T22:58:21.254Z,8.80
2018-05-19T23:00:48.596Z,7.73
2018-05-19T23:03:16.050Z,8.50
2018-05-19T23:05:43.414Z,8.17
2018-05-19T23:08:10.792Z,8.63
2018-05-19T23:10:38.143Z,8.30
2018-05-19T23:13:05.514Z,8.70
2018-05-19T23:15:32.852Z,9.80
2018-05-19T23:18:00.216Z,9.40
2018-05-19T23:20:27.554Z,9.33
2018-05-19T23:22:54.914Z,8.00
2018-05-19T23:25:22.248Z,8.80
2018-05-19T23:27:49.636Z,8.10
2018-05-19T23:30:17.029Z,7.80
2018-05-19T23:32:44.447Z,8.70
2018-05-19T23:35:11.780Z,8.30
2018-05-19T23:37:39.145Z,8.10
2018-05-19T23:40:06.490Z,8.73
2018-05-19T23:42:33.866Z,7.70
2018-05-19T23:45:01.202Z,8.27
2018-05-19T23:47:28.578Z,8.13
2018-05-19T23:49:55.917Z,8.80
2018-05-19T23:52:23.282Z,8.33
2018-05-19T23:54:50.617Z,8.70
2018-05-19T23:57:17.957Z,8.90
2018-05-19T23:59:45.348Z,8.60
